X  Blizu METAR Podaci o vazduhoplovstvu     LGEL Elefsis Airport
Temperatura
20°C Temperatura
7°C Tačka Rose
43% Vlaga



Vetar
2 MPS
3 KM/S
1 M/S
2 Čvorovi



Tiho
S
Trenutna situacija

Vedro Vedro
Vazdušni pritisak 1014.9 (hPa) - 29.97 (inHg)
Vidljivost 6 (Milje) - 9.7 (km)
Aerodrom
Aerodromski kod. LGEL

Lokacija: Elefsis Airport
Udaljenost: 77 (mi)

Metar:
LGEL 152050Z VRB02KT CAVOK 20/07 Q1015

Vreme: 15-04-2024 23:50 EEST